• Join FlightAware (Why Join?)
  • Login
  • US Flag 
05:55AM EDT


 

Airport Tracker/Info


-or-


 

Live Flight TrackerFlight Track Log ✈ SWA825 ✈ 08-May-2013 ✈ KMDW - KMHT

Flight Track Log - Related Links

Times and Time Zones

All times are in EDT time to prevent confusion due to time zone crossing. See the SWA825 flight status page for this flight to view local times or setup timezone preferences in your user account.

Time Position Orientation Groundspeed Altitude Reporting Facility
EDT Latitude Longitude Course Direction KTS MPH feet Rate Location/Type
10:17AM 41.8333 -87.7167 29° Northeast 224 258 4,000  Level Chicago TRACON
10:18AM 41.8167 -87.6333 105° East 267 307 7,200 3,600 Climbing Chicago TRACON
10:19AM 41.8156 -87.5417 91° East 272 313 10,900 3,780 Climbing Chicago Center
10:20AM 41.8031 -87.4292 98° East 296 341 14,500 1,980 Climbing Chicago Center
10:21AM 41.7886 -87.3100 99° East 320 368 15,000 1,380 Climbing Chicago Center
10:22AM 41.7758 -87.1825 98° East 342 394 17,400 2,640 Climbing Chicago Center
10:23AM 41.7603 -87.0425 98° East 374 430 20,500 2,820 Climbing Chicago Center
10:24AM 41.7647 -86.8658 88° East 395 455 23,300 2,640 Climbing Chicago Center
10:25AM 41.7650 -86.7153 90° East 404 465 26,000 2,340 Climbing Chicago Center
10:26AM 41.7675 -86.5450 89° East 425 489 28,200 2,040 Climbing Chicago Center
10:27AM 41.7675 -86.3794 90° East 441 507 30,300 1,920 Climbing Chicago Center
10:28AM 41.7869 -86.2119 81° East 452 520 32,300 1,260 Climbing Chicago Center
10:29AM 41.8147 -86.0489 77° East 450 518 33,000 1,200 Climbing Chicago Center
10:31AM 41.8422 -85.8867 77° East 447 514 34,900 1,740 Climbing Chicago Center
10:32AM 41.8694 -85.7267 77° East 440 506 36,700 1,500 Climbing Chicago Center
10:33AM 41.8964 -85.5650 77° East 439 505 38,000 1,500 Climbing Chicago Center
10:34AM 41.9286 -85.3711 77° East 439 505 39,800 1,440 Climbing Chicago Center
10:34AM 41.9475 -85.2686 76° East 432 497 40,400 720 Climbing Cleveland Center
10:35AM 41.9542 -85.1042 87° East 432 497 41,000 300 Climbing Cleveland Center
10:36AM 41.9525 -84.9364 91° East 442 509 41,000  Level Cleveland Center
10:37AM 41.9503 -84.7689 91° East 442 509 41,000  Level Cleveland Center
10:38AM 41.9603 -84.6017 85° East 442 509 41,000  Level Cleveland Center
10:39AM 41.9786 -84.4353 82° East 442 509 41,000  Level Cleveland Center
10:40AM 41.9975 -84.3050 79° East 442 509 41,000  Level Cleveland Center
10:41AM 42.0114 -84.1297 84° East 442 509 41,000  Level Cleveland Center
10:42AM 42.0331 -83.9661 80° East 442 509 41,000  Level Cleveland Center
10:43AM 42.0503 -83.8047 82° East 442 509 41,000  Level Cleveland Center
10:44AM 42.0650 -83.6431 83° East 442 509 41,000  Level Cleveland Center
10:45AM 42.0906 -83.4625 79° East 447 514 41,000  Level Cleveland Center
10:46AM 42.1069 -83.3008 82° East 440 506 41,000  Level Cleveland Center
10:47AM 42.1208 -83.1503 83° East 446 513 41,000  Level Cleveland Center
10:48AM 42.1392 -82.9858 81° East 446 513 41,000  Level Cleveland Center
10:49AM 42.1617 -82.8017 81° East 446 513 41,000  Level Cleveland Center
10:50AM 42.1769 -82.6397 83° East 446 513 41,000  Level Cleveland Center
10:51AM 42.1925 -82.4719 83° East 446 513 41,000  Level Cleveland Center
10:52AM 42.2094 -82.3128 82° East 446 513 41,000  Level Cleveland Center
10:53AM 42.2267 -82.1450 82° East 446 513 41,000  Level Cleveland Center
10:54AM 42.2431 -81.9994 81° East 446 513 41,000  Level Cleveland Center
10:55AM 42.2575 -81.8372 83° East 446 513 41,000  Level Cleveland Center
10:56AM 42.2758 -81.6550 82° East 441 507 41,000  Level Cleveland Center
10:57AM 42.2919 -81.4869 83° East 441 507 41,000  Level Cleveland Center
10:58AM 42.3078 -81.3244 82° East 447 514 41,000  Level Cleveland Center
10:59AM 42.3233 -81.1644 82° East 442 509 41,000  Level Cleveland Center
11:00AM 42.3386 -81.0017 83° East 437 503 41,000  Level Cleveland Center
11:01AM 42.3494 -80.8389 85° East 437 503 41,000  Level Cleveland Center
11:02AM 42.3642 -80.6758 83° East 437 503 41,000  Level Cleveland Center
11:03AM 42.3769 -80.5158 84° East 437 503 41,000  Level Cleveland Center
11:04AM 42.3911 -80.3722 82° East 431 496 41,000  Level Cleveland Center
11:05AM 42.4033 -80.2092 84° East 431 496 41,000  Level Cleveland Center
11:06AM 42.4153 -80.0489 84° East 425 489 41,000  Level Cleveland Center
11:07AM 42.4308 -79.8714 83° East 425 489 41,000  Level Cleveland Center
11:08AM 42.4444 -79.7139 83° East 425 489 41,000  Level Cleveland Center
11:09AM 42.4556 -79.5531 85° East 425 489 41,000  Level Cleveland Center
11:10AM 42.4667 -79.4011 84° East 437 503 41,000  Level Cleveland Center
11:11AM 42.4794 -79.2375 84° East 437 503 41,000  Level Cleveland Center
11:12AM 42.4919 -79.0569 85° East 437 503 41,000  Level Cleveland Center
11:13AM 42.5019 -78.8906 85° East 444 511 41,000  Level Cleveland Center
11:14AM 42.5142 -78.7269 84° East 444 511 41,000  Level Cleveland Center
11:15AM 42.5261 -78.5800 84° East 439 505 41,000  Level Cleveland Center
11:16AM 42.5375 -78.4050 85° East 420 483 41,000  Level Cleveland Center
11:17AM 42.5489 -78.2411 85° East 426 490 41,000  Level Cleveland Center
11:18AM 42.5581 -78.0772 86° East 426 490 41,000  Level Cleveland Center
11:19AM 42.5669 -77.9133 86° East 426 490 41,000  Level Cleveland Center
11:20AM 42.5783 -77.7747 84° East 426 490 41,000  Level Cleveland Center
11:21AM 42.5889 -77.6133 85° East 421 484 41,000  Level Cleveland Center
11:23AM 42.6067 -77.3072 85° East 428 493 41,000  Level Boston Center
11:24AM 42.6158 -77.1414 86° East 428 493 41,000  Level Boston Center
11:25AM 42.6244 -76.9811 86° East 428 493 41,000  Level Boston Center
11:26AM 42.6331 -76.8150 86° East 428 493 41,000  Level Boston Center
11:27AM 42.6411 -76.6519 86° East 433 498 41,000  Level Boston Center
11:28AM 42.6497 -76.4744 86° East 433 498 41,000  Level Boston Center
11:29AM 42.6556 -76.3111 87° East 433 498 41,000  Level Boston Center
11:30AM 42.6644 -76.1647 85° East 434 499 41,000 -60 Level Boston Center
11:31AM 42.6697 -75.9983 87° East 434 499 40,900 -600 Descending Boston Center
11:32AM 42.6767 -75.8406 87° East 434 499 39,900 -960 Descending Boston Center
11:33AM 42.6836 -75.6800 87° East 428 493 39,000 -960 Descending Boston Center
11:34AM 42.6900 -75.5219 87° East 422 486 38,000 -1,020 Descending Boston Center
11:35AM 42.6986 -75.3586 86° East 422 486 37,000 -1,500 Descending Boston Center
11:36AM 42.7025 -75.1978 88° East 421 484 35,000 -1,800 Descending Boston Center
11:37AM 42.7103 -75.0425 86° East 416 479 33,500 -1,140 Descending Boston Center
11:38AM 42.7139 -74.8817 88° East 416 479 32,800 -1,320 Descending Boston Center
11:39AM 42.7192 -74.7236 87° East 422 486 30,900 -1,740 Descending Boston Center
11:40AM 42.7267 -74.5628 86° East 422 486 29,000 -900 Descending Boston Center
11:41AM 42.7361 -74.3792 86° East 411 473 29,000  Level Boston Center
11:42AM 42.7386 -74.2239 89° East 411 473 29,000  Level Boston Center
11:43AM 42.7472 -74.0714 86° East 406 467 29,000  Level Boston Center
11:44AM 42.7556 -73.9161 86° East 401 461 29,000 -540 Level Boston Center
11:45AM 42.7617 -73.7608 87° East 401 461 28,000 -1,020 Descending Boston Center
11:46AM 42.7717 -73.6139 85° East 401 461 27,000 -960 Descending Boston Center
11:48AM 42.7772 -73.4642 87° East 401 461 26,000 -1,020 Descending Boston Center
11:49AM 42.7828 -73.2831 88° East 401 461 24,800 -1,140 Descending Boston Center
11:50AM 42.7881 -73.1389 87° East 390 449 23,800 -1,080 Descending Boston Center
11:51AM 42.8014 -72.9750 84° East 390 449 22,700 -1,740 Descending Boston Center
11:52AM 42.8269 -72.8392 76° East 375 432 20,400 -2,220 Descending Boston Center
11:53AM 42.8503 -72.7175 75° East 369 425 18,300 -2,100 Descending Boston Center
11:54AM 42.8567 -72.5844 86° East 359 413 16,200 -1,740 Descending Boston Center
11:55AM 42.8506 -72.4569 94° East 348 400 14,900 -1,200 Descending Boston Center
11:56AM 42.8442 -72.3297 94° East 343 395 13,900 -1,320 Descending Boston Center
11:57AM 42.8358 -72.2081 95° East 332 382 12,300 -1,860 Descending Boston Center
11:58AM 42.8333 -72.0778 91° East 322 371 10,200 -1,440 Descending Boston Center
11:59AM 42.8767 -71.9925 55° Northeast 289 333 9,500 -960 Descending Boston Center
12:00PM 42.9286 -71.9014 52° Northeast 279 321 8,200 -1,320 Descending Boston Center
12:01PM 42.9781 -71.8100 53° Northeast 269 310 6,700 -1,800 Descending Boston Center
12:02PM 43.0025 -71.7133 71° East 244 281 4,700 -1,680 Descending Boston Center
12:03PM 43.0167 -71.6392 75° East 237 273 3,400 -1,200 Descending Boston Center
12:04PM 43.0283 -71.5567 79° East 210 242 2,300 -900 Descending Boston Center
12:05PM 43.0239 -71.4972 96° East 179 206 1,700 -600 Descending Boston Center
12:06PM 42.9861 -71.4667 149° Southeast 142 163 1,200 -600 Descending Boston Center
12:07PM 42.9567 -71.4472 154° Southeast 142 163 600 -480 Descending Boston Center
12:08PM 42.9211 -71.4281 158° South 142 163 300 9,180 Descending Boston Center
12:09PM 42.8833 -71.4058 157° South 142 163 19,000 9,300 Climbing Boston Center
12:10PM 42.8478 -71.3867 158° South 142 163 19,000  Level Boston Center
12:11PM 42.8100 -71.3647 157° South 142 163 19,000  Level Boston Center
12:13PM 42.9167 -71.4333 316° Northwest  Level FlightAware Approximate
12:20PM 42.9328 -71.4358 316° Northwest  Level Estimated
12:21PM 42.9328 -71.4358 316° Northwest  Level Estimated
12:22PM 42.9328 -71.4358 316° Northwest  Level Estimated
12:23PM 42.9328 -71.4358 316° Northwest  Level Estimated